VOZ1592 YSSY-YBBN
Flight info
| Callsign | VOZ1592 |
|---|---|
| Flight time | 1h 4m |
| Altitude | 37000 |
| Route | TESAT H252 OLSEM Y193 BANDA H252 BN |
| Aircraft | B738/M-SDE2E3FGHIRWXY/LB1 |
Departure
| Time | 2026-04-21 09:09 |
|---|---|
| Airport | Sydney Kingsford Smith International Airport (YSSY) |
Arrival
| Time | 2026-04-21 10:14 |
|---|---|
| Airport | Brisbane International Airport (YBBN) |
| Time | Latitude | Longitude | Altitude | Speed | Heading |
|---|---|---|---|---|---|
| 2026-04-21 08:42 | -33.92770 | 151.17469 | 29 ft | 0 kts | 77° |
| 2026-04-21 08:55 | -33.92770 | 151.17468 | 29 ft | 2 kts | 77° |
| 2026-04-21 08:56 | -33.92776 | 151.17439 | 29 ft | 4 kts | 66° |
| 2026-04-21 08:56 | -33.92791 | 151.17414 | 29 ft | 4 kts | 48° |
| 2026-04-21 08:56 | -33.92800 | 151.17390 | 29 ft | 4 kts | 111° |
| 2026-04-21 08:56 | -33.92784 | 151.17367 | 29 ft | 4 kts | 153° |
| 2026-04-21 08:57 | -33.92773 | 151.17362 | 29 ft | 1 kts | 168° |
| 2026-04-21 08:59 | -33.92777 | 151.17363 | 29 ft | 2 kts | 168° |
| 2026-04-21 08:59 | -33.92801 | 151.17368 | 29 ft | 5 kts | 169° |
| 2026-04-21 09:00 | -33.92843 | 151.17377 | 29 ft | 6 kts | 169° |
| 2026-04-21 09:00 | -33.92885 | 151.17387 | 29 ft | 6 kts | 169° |
| 2026-04-21 09:00 | -33.92928 | 151.17389 | 29 ft | 6 kts | 181° |
| 2026-04-21 09:00 | -33.92969 | 151.17395 | 29 ft | 6 kts | 168° |
| 2026-04-21 09:01 | -33.93009 | 151.17407 | 29 ft | 6 kts | 167° |
| 2026-04-21 09:01 | -33.93055 | 151.17420 | 29 ft | 8 kts | 167° |
| 2026-04-21 09:01 | -33.93130 | 151.17439 | 29 ft | 14 kts | 168° |
| 2026-04-21 09:01 | -33.93239 | 151.17467 | 29 ft | 19 kts | 168° |
| 2026-04-21 09:02 | -33.93380 | 151.17502 | 29 ft | 23 kts | 172° |
| 2026-04-21 09:02 | -33.93548 | 151.17519 | 28 ft | 26 kts | 167° |
| 2026-04-21 09:02 | -33.93687 | 151.17556 | 28 ft | 14 kts | 168° |
| 2026-04-21 09:03 | -33.93867 | 151.17621 | 28 ft | 13 kts | 117° |
| 2026-04-21 09:03 | -33.93854 | 151.17726 | 29 ft | 13 kts | 83° |
| 2026-04-21 09:03 | -33.93916 | 151.17783 | 28 ft | 12 kts | 168° |
| 2026-04-21 09:03 | -33.94005 | 151.17806 | 28 ft | 17 kts | 167° |
| 2026-04-21 09:04 | -33.94165 | 151.17848 | 29 ft | 30 kts | 168° |
| 2026-04-21 09:04 | -33.94370 | 151.17901 | 29 ft | 30 kts | 168° |
| 2026-04-21 09:04 | -33.94566 | 151.17894 | 29 ft | 28 kts | 169° |
| 2026-04-21 09:04 | -33.94751 | 151.17940 | 29 ft | 26 kts | 167° |
| 2026-04-21 09:05 | -33.94924 | 151.17986 | 29 ft | 25 kts | 168° |
| 2026-04-21 09:05 | -33.95082 | 151.18037 | 29 ft | 23 kts | 143° |
| 2026-04-21 09:05 | -33.95080 | 151.18216 | 29 ft | 22 kts | 78° |
| 2026-04-21 09:05 | -33.95048 | 151.18396 | 29 ft | 22 kts | 77° |
| 2026-04-21 09:06 | -33.95017 | 151.18565 | 29 ft | 18 kts | 77° |
| 2026-04-21 09:06 | -33.94999 | 151.18664 | 28 ft | 9 kts | 78° |
| 2026-04-21 09:06 | -33.94991 | 151.18705 | 28 ft | 0 kts | 78° |
| 2026-04-21 09:07 | -33.94989 | 151.18718 | 27 ft | 3 kts | 78° |
| 2026-04-21 09:07 | -33.94982 | 151.18758 | 29 ft | 9 kts | 78° |
| 2026-04-21 09:07 | -33.94994 | 151.18834 | 27 ft | 13 kts | 148° |
| 2026-04-21 09:07 | -33.95022 | 151.18843 | 23 ft | 0 kts | 168° |
| 2026-04-21 09:08 | -33.95043 | 151.18849 | 24 ft | 10 kts | 168° |
| 2026-04-21 09:08 | -33.95350 | 151.18927 | 22 ft | 87 kts | 168° |
| 2026-04-21 09:08 | -33.96199 | 151.19149 | 44 ft | 158 kts | 167° |
| 2026-04-21 09:09 | -33.97386 | 151.19445 | 591 ft | 186 kts | 169° |
| 2026-04-21 09:09 | -33.98636 | 151.19969 | 1412 ft | 195 kts | 144° |
| 2026-04-21 09:09 | -33.99366 | 151.21360 | 2121 ft | 207 kts | 115° |
| 2026-04-21 09:09 | -33.99937 | 151.23035 | 2505 ft | 223 kts | 116° |
| 2026-04-21 09:10 | -34.00789 | 151.24593 | 3099 ft | 223 kts | 142° |
| 2026-04-21 09:10 | -34.02011 | 151.25762 | 3771 ft | 230 kts | 143° |
| 2026-04-21 09:10 | -34.02976 | 151.27396 | 4204 ft | 254 kts | 110° |
| 2026-04-21 09:10 | -34.03061 | 151.29532 | 5046 ft | 267 kts | 82° |
| 2026-04-21 09:11 | -34.02319 | 151.31599 | 5990 ft | 276 kts | 57° |
| 2026-04-21 09:11 | -34.00918 | 151.33223 | 6879 ft | 284 kts | 39° |
| 2026-04-21 09:11 | -33.99255 | 151.34551 | 7713 ft | 290 kts | 34° |
| 2026-04-21 09:11 | -33.97517 | 151.35825 | 8552 ft | 294 kts | 33° |
| 2026-04-21 09:12 | -33.95760 | 151.37103 | 9390 ft | 298 kts | 33° |
| 2026-04-21 09:12 | -33.93976 | 151.38412 | 10181 ft | 303 kts | 33° |
| 2026-04-21 09:12 | -33.92134 | 151.39782 | 10547 ft | 324 kts | 33° |
| 2026-04-21 09:12 | -33.90178 | 151.41250 | 10862 ft | 344 kts | 33° |
| 2026-04-21 09:13 | -33.88121 | 151.42799 | 11496 ft | 353 kts | 34° |
| 2026-04-21 09:13 | -33.86033 | 151.44380 | 12277 ft | 356 kts | 34° |
| 2026-04-21 09:13 | -33.83926 | 151.45981 | 13015 ft | 361 kts | 34° |
| 2026-04-21 09:13 | -33.81795 | 151.47601 | 13773 ft | 364 kts | 34° |
| 2026-04-21 09:14 | -33.79642 | 151.49236 | 14533 ft | 368 kts | 34° |
| 2026-04-21 09:14 | -33.77467 | 151.50888 | 15267 ft | 371 kts | 34° |
| 2026-04-21 09:14 | -33.75273 | 151.52554 | 15956 ft | 375 kts | 34° |
| 2026-04-21 09:14 | -33.73082 | 151.54218 | 16594 ft | 380 kts | 34° |
| 2026-04-21 09:15 | -33.70832 | 151.55926 | 17252 ft | 384 kts | 34° |
| 2026-04-21 09:15 | -33.68560 | 151.57650 | 17908 ft | 388 kts | 34° |
| 2026-04-21 09:15 | -33.66268 | 151.59388 | 18571 ft | 391 kts | 34° |
| 2026-04-21 09:15 | -33.63955 | 151.61147 | 19152 ft | 396 kts | 34° |
| 2026-04-21 09:16 | -33.61634 | 151.62970 | 19687 ft | 402 kts | 35° |
| 2026-04-21 09:16 | -33.59291 | 151.64836 | 20248 ft | 406 kts | 36° |
| 2026-04-21 09:16 | -33.56927 | 151.66725 | 20793 ft | 411 kts | 36° |
| 2026-04-21 09:16 | -33.54532 | 151.68626 | 21351 ft | 415 kts | 35° |
| 2026-04-21 09:17 | -33.52113 | 151.70539 | 21859 ft | 419 kts | 35° |
| 2026-04-21 09:17 | -33.49622 | 151.72304 | 22306 ft | 426 kts | 27° |
| 2026-04-21 09:17 | -33.46842 | 151.73583 | 22777 ft | 431 kts | 16° |
| 2026-04-21 09:17 | -33.43923 | 151.74466 | 23292 ft | 434 kts | 14° |
| 2026-04-21 09:18 | -33.40972 | 151.75330 | 23739 ft | 439 kts | 14° |
| 2026-04-21 09:18 | -33.37998 | 151.76239 | 24183 ft | 443 kts | 15° |
| 2026-04-21 09:18 | -33.35004 | 151.77185 | 24633 ft | 447 kts | 15° |
| 2026-04-21 09:18 | -33.31994 | 151.78156 | 25088 ft | 450 kts | 15° |
| 2026-04-21 09:19 | -33.28965 | 151.79140 | 25517 ft | 453 kts | 15° |
| 2026-04-21 09:19 | -33.25913 | 151.80132 | 25926 ft | 456 kts | 15° |
| 2026-04-21 09:19 | -33.22840 | 151.81129 | 26342 ft | 459 kts | 15° |
| 2026-04-21 09:19 | -33.19788 | 151.82116 | 26736 ft | 462 kts | 15° |
| 2026-04-21 09:20 | -33.16674 | 151.83121 | 27120 ft | 465 kts | 15° |
| 2026-04-21 09:20 | -33.13544 | 151.84129 | 27544 ft | 467 kts | 15° |
| 2026-04-21 09:20 | -33.10402 | 151.85140 | 27926 ft | 469 kts | 14° |
| 2026-04-21 09:20 | -33.07236 | 151.86157 | 28257 ft | 473 kts | 14° |
| 2026-04-21 09:21 | -33.04053 | 151.87180 | 28602 ft | 475 kts | 14° |
| 2026-04-21 09:21 | -33.00848 | 151.88207 | 28962 ft | 478 kts | 14° |
| 2026-04-21 09:21 | -32.97637 | 151.89237 | 29309 ft | 480 kts | 14° |
| 2026-04-21 09:21 | -32.94447 | 151.90259 | 29624 ft | 482 kts | 14° |
| 2026-04-21 09:22 | -32.91199 | 151.91298 | 29958 ft | 484 kts | 14° |
| 2026-04-21 09:22 | -32.87939 | 151.92341 | 30269 ft | 486 kts | 14° |
| 2026-04-21 09:22 | -32.84667 | 151.93387 | 30554 ft | 488 kts | 14° |
| 2026-04-21 09:22 | -32.81377 | 151.94438 | 30844 ft | 490 kts | 14° |
| 2026-04-21 09:23 | -32.78076 | 151.95491 | 31099 ft | 493 kts | 14° |
| 2026-04-21 09:23 | -32.74755 | 151.96551 | 31337 ft | 495 kts | 14° |
| 2026-04-21 09:23 | -32.71420 | 151.97615 | 31611 ft | 497 kts | 14° |
| 2026-04-21 09:23 | -32.68122 | 151.98665 | 31895 ft | 498 kts | 14° |
| 2026-04-21 09:24 | -32.64783 | 151.99728 | 32244 ft | 497 kts | 14° |
| 2026-04-21 09:24 | -32.61447 | 152.00787 | 32584 ft | 496 kts | 14° |
| 2026-04-21 09:24 | -32.58112 | 152.01847 | 32883 ft | 496 kts | 14° |
| 2026-04-21 09:24 | -32.54775 | 152.02908 | 33183 ft | 496 kts | 14° |
| 2026-04-21 09:25 | -32.51446 | 152.03965 | 33505 ft | 495 kts | 14° |
| 2026-04-21 09:25 | -32.48114 | 152.05021 | 33828 ft | 495 kts | 14° |
| 2026-04-21 09:25 | -32.44792 | 152.06074 | 34107 ft | 495 kts | 14° |
| 2026-04-21 09:25 | -32.41466 | 152.07127 | 34433 ft | 494 kts | 14° |
| 2026-04-21 09:26 | -32.38194 | 152.08161 | 34782 ft | 492 kts | 14° |
| 2026-04-21 09:26 | -32.34891 | 152.09204 | 35082 ft | 491 kts | 14° |
| 2026-04-21 09:26 | -32.31588 | 152.10247 | 35332 ft | 492 kts | 14° |
| 2026-04-21 09:26 | -32.28283 | 152.11291 | 35574 ft | 492 kts | 13° |
| 2026-04-21 09:27 | -32.24977 | 152.12334 | 35851 ft | 491 kts | 13° |
| 2026-04-21 09:27 | -32.21683 | 152.13371 | 36136 ft | 490 kts | 13° |
| 2026-04-21 09:27 | -32.18389 | 152.14408 | 36375 ft | 490 kts | 13° |
| 2026-04-21 09:27 | -32.15139 | 152.15430 | 36601 ft | 489 kts | 13° |
| 2026-04-21 09:28 | -32.11860 | 152.16463 | 36884 ft | 487 kts | 13° |
| 2026-04-21 09:28 | -32.08601 | 152.17485 | 37280 ft | 482 kts | 13° |
| 2026-04-21 09:28 | -32.02071 | 152.19531 | 37316 ft | 487 kts | 13° |
| 2026-04-21 09:29 | -31.95541 | 152.21579 | 37298 ft | 483 kts | 13° |
| 2026-04-21 09:29 | -31.89081 | 152.23603 | 37301 ft | 479 kts | 13° |
| 2026-04-21 09:30 | -31.82657 | 152.25610 | 37318 ft | 485 kts | 13° |
| 2026-04-21 09:30 | -31.76077 | 152.27659 | 37316 ft | 493 kts | 13° |
| 2026-04-21 09:31 | -31.69415 | 152.29734 | 37310 ft | 496 kts | 13° |
| 2026-04-21 09:31 | -31.62725 | 152.31816 | 37305 ft | 498 kts | 13° |
| 2026-04-21 09:32 | -31.56066 | 152.33885 | 37293 ft | 498 kts | 13° |
| 2026-04-21 09:32 | -31.49365 | 152.35964 | 37291 ft | 498 kts | 13° |
| 2026-04-21 09:33 | -31.42680 | 152.38035 | 37285 ft | 496 kts | 13° |
| 2026-04-21 09:33 | -31.36021 | 152.40094 | 37283 ft | 494 kts | 13° |
| 2026-04-21 09:34 | -31.29427 | 152.42129 | 37280 ft | 492 kts | 13° |
| 2026-04-21 09:34 | -31.22819 | 152.44167 | 37290 ft | 490 kts | 13° |
| 2026-04-21 09:35 | -31.16227 | 152.46197 | 37292 ft | 489 kts | 13° |
| 2026-04-21 09:35 | -31.09649 | 152.48222 | 37289 ft | 489 kts | 13° |
| 2026-04-21 09:36 | -31.03065 | 152.50242 | 37274 ft | 490 kts | 13° |
| 2026-04-21 09:36 | -30.96517 | 152.52247 | 37275 ft | 490 kts | 13° |
| 2026-04-21 09:37 | -30.89916 | 152.54268 | 37269 ft | 491 kts | 13° |
| 2026-04-21 09:37 | -30.83309 | 152.56289 | 37268 ft | 491 kts | 13° |
| 2026-04-21 09:38 | -30.76704 | 152.58373 | 37266 ft | 493 kts | 15° |
| 2026-04-21 09:38 | -30.70201 | 152.60745 | 37273 ft | 493 kts | 17° |
| 2026-04-21 09:39 | -30.63661 | 152.63188 | 37266 ft | 494 kts | 16° |
| 2026-04-21 09:39 | -30.57101 | 152.65597 | 37263 ft | 495 kts | 16° |
| 2026-04-21 09:40 | -30.50528 | 152.67977 | 37269 ft | 495 kts | 16° |
| 2026-04-21 09:40 | -30.43948 | 152.70348 | 37261 ft | 495 kts | 16° |
| 2026-04-21 09:41 | -30.37412 | 152.72700 | 37269 ft | 495 kts | 16° |
| 2026-04-21 09:41 | -30.30836 | 152.75067 | 37265 ft | 495 kts | 16° |
| 2026-04-21 09:42 | -30.24270 | 152.77427 | 37270 ft | 494 kts | 16° |
| 2026-04-21 09:42 | -30.17706 | 152.79783 | 37266 ft | 493 kts | 16° |
| 2026-04-21 09:43 | -30.11197 | 152.82114 | 37269 ft | 493 kts | 16° |
| 2026-04-21 09:43 | -30.04650 | 152.84457 | 37263 ft | 492 kts | 16° |
| 2026-04-21 09:44 | -29.98113 | 152.86792 | 37273 ft | 492 kts | 16° |
| 2026-04-21 09:44 | -29.91568 | 152.89127 | 37265 ft | 492 kts | 15° |
| 2026-04-21 09:45 | -29.85074 | 152.91440 | 37270 ft | 491 kts | 15° |
| 2026-04-21 09:45 | -29.78541 | 152.93764 | 37263 ft | 492 kts | 15° |
| 2026-04-21 09:46 | -29.72015 | 152.96085 | 37256 ft | 491 kts | 15° |
| 2026-04-21 09:46 | -29.65568 | 152.98375 | 37253 ft | 479 kts | 15° |
| 2026-04-21 09:47 | -29.62379 | 152.99505 | 36864 ft | 482 kts | 15° |
| 2026-04-21 09:47 | -29.59240 | 153.00616 | 36529 ft | 476 kts | 15° |
| 2026-04-21 09:47 | -29.56090 | 153.01731 | 36114 ft | 473 kts | 15° |
| 2026-04-21 09:47 | -29.52998 | 153.02826 | 35701 ft | 469 kts | 15° |
| 2026-04-21 09:48 | -29.49883 | 153.03927 | 35288 ft | 467 kts | 15° |
| 2026-04-21 09:48 | -29.46793 | 153.05018 | 34892 ft | 464 kts | 15° |
| 2026-04-21 09:48 | -29.43724 | 153.06102 | 34487 ft | 460 kts | 15° |
| 2026-04-21 09:48 | -29.40671 | 153.07179 | 34086 ft | 458 kts | 16° |
| 2026-04-21 09:49 | -29.37637 | 153.08250 | 33685 ft | 455 kts | 16° |
| 2026-04-21 09:49 | -29.34619 | 153.09315 | 33286 ft | 452 kts | 16° |
| 2026-04-21 09:49 | -29.31619 | 153.10372 | 32884 ft | 450 kts | 16° |
| 2026-04-21 09:49 | -29.28674 | 153.11408 | 32499 ft | 448 kts | 16° |
| 2026-04-21 09:50 | -29.25706 | 153.12453 | 32099 ft | 445 kts | 16° |
| 2026-04-21 09:50 | -29.22754 | 153.13493 | 31702 ft | 443 kts | 16° |
| 2026-04-21 09:50 | -29.19817 | 153.14527 | 31302 ft | 441 kts | 16° |
| 2026-04-21 09:50 | -29.16891 | 153.15557 | 30916 ft | 438 kts | 16° |
| 2026-04-21 09:51 | -29.13985 | 153.16581 | 30532 ft | 436 kts | 16° |
| 2026-04-21 09:51 | -29.11090 | 153.17600 | 30144 ft | 434 kts | 16° |
| 2026-04-21 09:51 | -29.08211 | 153.18612 | 29759 ft | 432 kts | 16° |
| 2026-04-21 09:51 | -29.05356 | 153.19614 | 29359 ft | 429 kts | 16° |
| 2026-04-21 09:52 | -29.02537 | 153.20604 | 28966 ft | 427 kts | 16° |
| 2026-04-21 09:52 | -28.99705 | 153.21598 | 28561 ft | 425 kts | 16° |
| 2026-04-21 09:52 | -28.96885 | 153.22587 | 28165 ft | 423 kts | 16° |
| 2026-04-21 09:52 | -28.94066 | 153.23574 | 27770 ft | 425 kts | 16° |
| 2026-04-21 09:53 | -28.91206 | 153.24576 | 27397 ft | 440 kts | 16° |
| 2026-04-21 09:53 | -28.88217 | 153.25622 | 27014 ft | 456 kts | 17° |
| 2026-04-21 09:53 | -28.85159 | 153.26691 | 26620 ft | 462 kts | 17° |
| 2026-04-21 09:53 | -28.82090 | 153.27763 | 26217 ft | 460 kts | 17° |
| 2026-04-21 09:54 | -28.79039 | 153.28830 | 25805 ft | 457 kts | 17° |
| 2026-04-21 09:54 | -28.76051 | 153.29874 | 25407 ft | 454 kts | 17° |
| 2026-04-21 09:54 | -28.73043 | 153.30924 | 24996 ft | 452 kts | 17° |
| 2026-04-21 09:54 | -28.70019 | 153.31977 | 24613 ft | 456 kts | 17° |
| 2026-04-21 09:55 | -28.66970 | 153.33040 | 24209 ft | 460 kts | 17° |
| 2026-04-21 09:55 | -28.63897 | 153.34111 | 23822 ft | 462 kts | 17° |
| 2026-04-21 09:55 | -28.60828 | 153.35180 | 23420 ft | 461 kts | 17° |
| 2026-04-21 09:55 | -28.57769 | 153.36245 | 23029 ft | 460 kts | 17° |
| 2026-04-21 09:56 | -28.54715 | 153.37308 | 22632 ft | 458 kts | 17° |
| 2026-04-21 09:56 | -28.51711 | 153.38355 | 22218 ft | 457 kts | 17° |
| 2026-04-21 09:56 | -28.48679 | 153.39407 | 21826 ft | 455 kts | 17° |
| 2026-04-21 09:56 | -28.45652 | 153.40457 | 21427 ft | 454 kts | 17° |
| 2026-04-21 09:57 | -28.42639 | 153.41501 | 21033 ft | 453 kts | 17° |
| 2026-04-21 09:57 | -28.39627 | 153.42544 | 20613 ft | 452 kts | 17° |
| 2026-04-21 09:57 | -28.36620 | 153.43586 | 20197 ft | 452 kts | 17° |
| 2026-04-21 09:57 | -28.33615 | 153.44627 | 19775 ft | 452 kts | 17° |
| 2026-04-21 09:58 | -28.30610 | 153.45667 | 19351 ft | 451 kts | 17° |
| 2026-04-21 09:58 | -28.27608 | 153.46706 | 18929 ft | 451 kts | 17° |
| 2026-04-21 09:58 | -28.24610 | 153.47743 | 18509 ft | 450 kts | 17° |
| 2026-04-21 09:58 | -28.21659 | 153.48763 | 18089 ft | 450 kts | 17° |
| 2026-04-21 09:59 | -28.18663 | 153.49784 | 17661 ft | 449 kts | 15° |
| 2026-04-21 09:59 | -28.15576 | 153.50201 | 17202 ft | 449 kts | 355° |
| 2026-04-21 09:59 | -28.12501 | 153.49629 | 16823 ft | 447 kts | 348° |
| 2026-04-21 09:59 | -28.09448 | 153.48936 | 16392 ft | 446 kts | 348° |
| 2026-04-21 10:00 | -28.06416 | 153.48266 | 15962 ft | 443 kts | 348° |
| 2026-04-21 10:00 | -28.03423 | 153.47624 | 15522 ft | 433 kts | 348° |
| 2026-04-21 10:00 | -28.00516 | 153.47013 | 15082 ft | 414 kts | 349° |
| 2026-04-21 10:00 | -27.97754 | 153.46441 | 14643 ft | 395 kts | 349° |
| 2026-04-21 10:01 | -27.95109 | 153.45893 | 14229 ft | 389 kts | 349° |
| 2026-04-21 10:01 | -27.92483 | 153.45351 | 14069 ft | 374 kts | 349° |
| 2026-04-21 10:01 | -27.89993 | 153.44837 | 13928 ft | 354 kts | 349° |
| 2026-04-21 10:01 | -27.87638 | 153.44352 | 13788 ft | 335 kts | 349° |
| 2026-04-21 10:02 | -27.83174 | 153.43429 | 12889 ft | 324 kts | 349° |
| 2026-04-21 10:02 | -27.80966 | 153.42975 | 12353 ft | 321 kts | 349° |
| 2026-04-21 10:02 | -27.78766 | 153.42523 | 11791 ft | 321 kts | 349° |
| 2026-04-21 10:03 | -27.76603 | 153.42075 | 11298 ft | 319 kts | 349° |
| 2026-04-21 10:03 | -27.74434 | 153.41627 | 10769 ft | 317 kts | 349° |
| 2026-04-21 10:03 | -27.72279 | 153.41181 | 10341 ft | 312 kts | 349° |
| 2026-04-21 10:03 | -27.70161 | 153.40745 | 10199 ft | 304 kts | 349° |
| 2026-04-21 10:04 | -27.68102 | 153.40321 | 9935 ft | 300 kts | 349° |
| 2026-04-21 10:04 | -27.66052 | 153.39904 | 9603 ft | 298 kts | 349° |
| 2026-04-21 10:04 | -27.64004 | 153.39483 | 9287 ft | 300 kts | 349° |
| 2026-04-21 10:04 | -27.61963 | 153.39042 | 9024 ft | 298 kts | 348° |
| 2026-04-21 10:05 | -27.59961 | 153.38588 | 8764 ft | 296 kts | 348° |
| 2026-04-21 10:05 | -27.57951 | 153.38136 | 8470 ft | 294 kts | 348° |
| 2026-04-21 10:05 | -27.55938 | 153.37685 | 8141 ft | 295 kts | 348° |
| 2026-04-21 10:05 | -27.53932 | 153.37243 | 7881 ft | 293 kts | 348° |
| 2026-04-21 10:06 | -27.51941 | 153.36800 | 7592 ft | 291 kts | 348° |
| 2026-04-21 10:06 | -27.49957 | 153.36358 | 7290 ft | 290 kts | 348° |
| 2026-04-21 10:06 | -27.47980 | 153.35920 | 6992 ft | 289 kts | 348° |
| 2026-04-21 10:06 | -27.46011 | 153.35482 | 6720 ft | 288 kts | 348° |
| 2026-04-21 10:07 | -27.44052 | 153.35048 | 6441 ft | 286 kts | 348° |
| 2026-04-21 10:07 | -27.42098 | 153.34618 | 6169 ft | 286 kts | 348° |
| 2026-04-21 10:07 | -27.40179 | 153.34191 | 5928 ft | 283 kts | 348° |
| 2026-04-21 10:07 | -27.38271 | 153.33765 | 5837 ft | 275 kts | 348° |
| 2026-04-21 10:08 | -27.36418 | 153.33352 | 5702 ft | 269 kts | 349° |
| 2026-04-21 10:08 | -27.34604 | 153.32970 | 5586 ft | 261 kts | 350° |
| 2026-04-21 10:08 | -27.32847 | 153.32637 | 5496 ft | 252 kts | 351° |
| 2026-04-21 10:08 | -27.31138 | 153.32316 | 5359 ft | 246 kts | 351° |
| 2026-04-21 10:09 | -27.29462 | 153.31996 | 5180 ft | 243 kts | 348° |
| 2026-04-21 10:09 | -27.27951 | 153.31217 | 4882 ft | 241 kts | 312° |
| 2026-04-21 10:09 | -27.27114 | 153.29653 | 4629 ft | 232 kts | 282° |
| 2026-04-21 10:09 | -27.26758 | 153.27931 | 4386 ft | 227 kts | 275° |
| 2026-04-21 10:10 | -27.26549 | 153.26179 | 4006 ft | 224 kts | 262° |
| 2026-04-21 10:10 | -27.27009 | 153.24554 | 3385 ft | 223 kts | 232° |
| 2026-04-21 10:10 | -27.27887 | 153.23056 | 2664 ft | 236 kts | 232° |
| 2026-04-21 10:10 | -27.28779 | 153.21493 | 2170 ft | 234 kts | 233° |
| 2026-04-21 10:11 | -27.29624 | 153.19997 | 1875 ft | 218 kts | 234° |
| 2026-04-21 10:11 | -27.30397 | 153.18624 | 1617 ft | 198 kts | 234° |
| 2026-04-21 10:11 | -27.31162 | 153.17422 | 1407 ft | 179 kts | 224° |
| 2026-04-21 10:11 | -27.32070 | 153.16591 | 1213 ft | 160 kts | 208° |
| 2026-04-21 10:12 | -27.32981 | 153.16003 | 1023 ft | 151 kts | 205° |
| 2026-04-21 10:12 | -27.33902 | 153.15469 | 835 ft | 148 kts | 204° |
| 2026-04-21 10:12 | -27.34822 | 153.14943 | 650 ft | 149 kts | 204° |
| 2026-04-21 10:12 | -27.35746 | 153.14414 | 456 ft | 149 kts | 204° |
| 2026-04-21 10:13 | -27.36668 | 153.13885 | 262 ft | 149 kts | 204° |
| 2026-04-21 10:13 | -27.37592 | 153.13362 | 47 ft | 148 kts | 206° |
| 2026-04-21 10:13 | -27.38444 | 153.12877 | 22 ft | 124 kts | 207° |
| 2026-04-21 10:13 | -27.39100 | 153.12498 | 19 ft | 88 kts | 206° |
| 2026-04-21 10:14 | -27.39506 | 153.12265 | 22 ft | 30 kts | 207° |
| 2026-04-21 10:14 | -27.39582 | 153.12136 | 20 ft | 21 kts | 280° |
| 2026-04-21 10:14 | -27.39558 | 153.12073 | 20 ft | 0 kts | 297° |
| 2026-04-21 10:15 | -27.39557 | 153.12070 | 20 ft | 2 kts | 297° |
| 2026-04-21 10:15 | -27.39531 | 153.12043 | 20 ft | 10 kts | 338° |
| 2026-04-21 10:15 | -27.39432 | 153.12080 | 21 ft | 20 kts | 27° |
| 2026-04-21 10:16 | -27.39280 | 153.12168 | 22 ft | 27 kts | 27° |
| 2026-04-21 10:16 | -27.39116 | 153.12261 | 22 ft | 26 kts | 27° |
| 2026-04-21 10:16 | -27.38962 | 153.12349 | 21 ft | 24 kts | 27° |
| 2026-04-21 10:16 | -27.38839 | 153.12419 | 20 ft | 20 kts | 26° |
| 2026-04-21 10:17 | -27.38751 | 153.12357 | 20 ft | 19 kts | 261° |
| 2026-04-21 10:17 | -27.38786 | 153.12226 | 20 ft | 18 kts | 284° |
| 2026-04-21 10:17 | -27.38758 | 153.12128 | 20 ft | 11 kts | 297° |
| 2026-04-21 10:17 | -27.38727 | 153.12069 | 21 ft | 4 kts | 308° |
| 2026-04-21 10:18 | -27.38711 | 153.12046 | 20 ft | 4 kts | 308° |
| 2026-04-21 10:18 | -27.38697 | 153.12026 | 20 ft | 0 kts | 307° |
| 2026-04-21 10:18 | -27.38696 | 153.12024 | 20 ft | 1 kts | 306° |
| 2026-04-21 10:18 | -27.38691 | 153.12017 | 20 ft | 1 kts | 307° |
| 2026-04-21 10:19 | -27.38690 | 153.12014 | 20 ft | 0 kts | 307° |
| 2026-04-21 10:40 | -27.38692 | 153.12018 | 22 ft | 3 kts | 307° |
| 2026-04-21 10:40 | -27.38712 | 153.12048 | 20 ft | 4 kts | 307° |
| 2026-04-21 10:40 | -27.38723 | 153.12063 | 20 ft | 0 kts | 307° |
| 2026-04-21 10:41 | -27.38690 | 153.12014 | 20 ft | 0 kts | 307° |
| 2026-04-21 10:47 | -27.38692 | 153.12018 | 20 ft | 3 kts | 307° |
| 2026-04-21 10:47 | -27.38709 | 153.12042 | 20 ft | 4 kts | 307° |
| 2026-04-21 10:47 | -27.38725 | 153.12067 | 21 ft | 4 kts | 307° |
| 2026-04-21 10:47 | -27.38741 | 153.12091 | 20 ft | 4 kts | 299° |
| 2026-04-21 10:48 | -27.38753 | 153.12118 | 20 ft | 4 kts | 297° |
| 2026-04-21 10:48 | -27.38759 | 153.12130 | 20 ft | 0 kts | 297° |
| 2026-04-21 10:50 | -27.38759 | 153.12129 | 20 ft | 1 kts | 294° |
| 2026-04-21 10:50 | -27.38760 | 153.12115 | 20 ft | 3 kts | 256° |
| 2026-04-21 10:51 | -27.38780 | 153.12095 | 21 ft | 5 kts | 201° |
| 2026-04-21 10:51 | -27.38816 | 153.12110 | 20 ft | 7 kts | 143° |
| 2026-04-21 10:51 | -27.38828 | 153.12161 | 20 ft | 8 kts | 56° |
| 2026-04-21 10:51 | -27.38783 | 153.12210 | 20 ft | 10 kts | 79° |
| 2026-04-21 10:52 | -27.38790 | 153.12298 | 20 ft | 12 kts | 62° |
| 2026-04-21 10:52 | -27.38753 | 153.12385 | 20 ft | 14 kts | 103° |
| 2026-04-21 10:52 | -27.38725 | 153.12484 | 21 ft | 16 kts | 28° |
| 2026-04-21 10:52 | -27.38620 | 153.12545 | 21 ft | 18 kts | 27° |
| 2026-04-21 10:53 | -27.38504 | 153.12611 | 23 ft | 19 kts | 27° |
| 2026-04-21 10:53 | -27.38420 | 153.12686 | 21 ft | 15 kts | 75° |
| 2026-04-21 10:53 | -27.38459 | 153.12794 | 22 ft | 16 kts | 117° |
| 2026-04-21 10:53 | -27.38514 | 153.12913 | 22 ft | 19 kts | 117° |
| 2026-04-21 10:54 | -27.38543 | 153.13053 | 21 ft | 20 kts | 56° |
| 2026-04-21 10:54 | -27.38427 | 153.13140 | 22 ft | 21 kts | 52° |
| 2026-04-21 10:54 | -27.38450 | 153.13289 | 21 ft | 21 kts | 115° |
| 2026-04-21 10:54 | -27.38514 | 153.13429 | 22 ft | 15 kts | 117° |
| 2026-04-21 10:55 | -27.38604 | 153.13448 | 21 ft | 16 kts | 212° |
| 2026-04-21 10:55 | -27.38711 | 153.13386 | 20 ft | 18 kts | 207° |
| 2026-04-21 10:55 | -27.38799 | 153.13350 | 20 ft | 10 kts | 158° |
| 2026-04-21 10:55 | -27.38816 | 153.13401 | 23 ft | 8 kts | 94° |
| 2026-04-21 10:56 | -27.38821 | 153.13444 | 20 ft | 0 kts | 107° |
| 2026-04-21 10:56 | -27.38821 | 153.13445 | 22 ft | 2 kts | 108° |
| 2026-04-21 10:56 | -27.38825 | 153.13453 | 20 ft | 0 kts | 115° |
| 2026-04-21 10:57 | -27.38827 | 153.13457 | 20 ft | 0 kts | 117° |
| 2026-04-21 10:57 | -27.38830 | 153.13465 | 21 ft | 0 kts | 117° |